Terminal Aerodrome Forecast
Issued by NWS

Home | Current Version | Previous Version | Text Only | Print | Product List | Glossary On
Versions: 1 2 3 4 5 6 7 8 9 10 11 12 13 14 15 16
000
FTAK31 PAJN 271136
TAFAYA
TAF
PAYA 271136Z 2712/2812 06006KT 5SM -RA BR FEW007 OVC025
      TEMPO 2712/2716 3SM -RA BR BKN007 OVC015
     FM271800 06008KT 4SM -RA BR SCT007 OVC015 WS020/12030KT
     FM272100 09010G18KT 2SM RA BR BKN007 OVC015 WS020/12035KT
     FM280000 11012G22KT 2SM RA BR OVC007 WS020/14035KT
     FM280800 13010G18KT 4SM -RA BR BKN015 OVC025
      AMD LTD TO CLD VIS AND WIND 2801/2809=

USA.gov is the U.S. government's official web portal to all federal, state and local government web resources and services.